sensor_id;sensor_type;location;lat;lon;timestamp;P1;durP1;ratioP1;P2;durP2;ratioP2
48703;SDS011;34502;51.296;16.918;2024-03-23T00:56:19;36.53;;;22.23;;
48703;SDS011;34502;51.296;16.918;2024-03-23T00:58:45;37.33;;;23.67;;
48703;SDS011;34502;51.296;16.918;2024-03-23T01:01:11;33.83;;;21.00;;
48703;SDS011;34502;51.296;16.918;2024-03-23T01:03:37;35.42;;;22.58;;
48703;SDS011;34502;51.296;16.918;2024-03-23T01:06:03;30.80;;;21.05;;
48703;SDS011;34502;51.296;16.918;2024-03-23T01:08:29;36.95;;;21.90;;
48703;SDS011;34502;51.296;16.918;2024-03-23T01:10:56;31.33;;;20.67;;
48703;SDS011;34502;51.296;16.918;2024-03-23T01:13:26;35.80;;;23.00;;
48703;SDS011;34502;51.296;16.918;2024-03-23T01:15:53;32.70;;;22.05;;
48703;SDS011;34502;51.296;16.918;2024-03-23T01:18:22;37.00;;;24.55;;
48703;SDS011;34502;51.296;16.918;2024-03-23T01:20:48;38.90;;;24.02;;
48703;SDS011;34502;51.296;16.918;2024-03-23T01:23:14;39.83;;;26.80;;
48703;SDS011;34502;51.296;16.918;2024-03-23T01:25:41;43.88;;;28.90;;
48703;SDS011;34502;51.296;16.918;2024-03-23T01:28:07;40.33;;;27.52;;
48703;SDS011;34502;51.296;16.918;2024-03-23T01:30:33;39.30;;;26.95;;
48703;SDS011;34502;51.296;16.918;2024-03-23T01:33:00;47.20;;;29.92;;
48703;SDS011;34502;51.296;16.918;2024-03-23T01:35:27;41.17;;;29.90;;
48703;SDS011;34502;51.296;16.918;2024-03-23T01:37:53;44.55;;;30.45;;
48703;SDS011;34502;51.296;16.918;2024-03-23T01:40:20;43.83;;;29.13;;
48703;SDS011;34502;51.296;16.918;2024-03-23T01:42:58;48.03;;;32.63;;
48703;SDS011;34502;51.296;16.918;2024-03-23T01:45:34;44.72;;;32.25;;
48703;SDS011;34502;51.296;16.918;2024-03-23T01:48:00;44.80;;;30.92;;
48703;SDS011;34502;51.296;16.918;2024-03-23T01:50:27;46.75;;;32.30;;
48703;SDS011;34502;51.296;16.918;2024-03-23T01:52:53;45.20;;;30.73;;
48703;SDS011;34502;51.296;16.918;2024-03-23T01:55:19;44.45;;;31.25;;
48703;SDS011;34502;51.296;16.918;2024-03-23T01:57:46;42.08;;;29.52;;
48703;SDS011;34502;51.296;16.918;2024-03-23T02:00:12;38.65;;;28.00;;
48703;SDS011;34502;51.296;16.918;2024-03-23T02:02:44;47.80;;;32.08;;
48703;SDS011;34502;51.296;16.918;2024-03-23T02:05:11;35.95;;;26.38;;
48703;SDS011;34502;51.296;16.918;2024-03-23T02:07:40;38.50;;;28.13;;
48703;SDS011;34502;51.296;16.918;2024-03-23T02:10:08;39.95;;;27.92;;
48703;SDS011;34502;51.296;16.918;2024-03-23T02:12:40;49.35;;;31.40;;
48703;SDS011;34502;51.296;16.918;2024-03-23T02:15:06;50.80;;;32.13;;
48703;SDS011;34502;51.296;16.918;2024-03-23T02:17:33;45.53;;;31.35;;
48703;SDS011;34502;51.296;16.918;2024-03-23T02:20:00;44.72;;;29.83;;
48703;SDS011;34502;51.296;16.918;2024-03-23T02:22:37;39.92;;;28.00;;
48703;SDS011;34502;51.296;16.918;2024-03-23T02:25:04;50.97;;;32.50;;
48703;SDS011;34502;51.296;16.918;2024-03-23T02:27:30;43.78;;;29.67;;
48703;SDS011;34502;51.296;16.918;2024-03-23T02:29:56;43.55;;;28.55;;
48703;SDS011;34502;51.296;16.918;2024-03-23T02:32:22;44.97;;;29.80;;
48703;SDS011;34502;51.296;16.918;2024-03-23T02:34:48;42.60;;;27.48;;
48703;SDS011;34502;51.296;16.918;2024-03-23T02:37:14;40.30;;;26.10;;
48703;SDS011;34502;51.296;16.918;2024-03-23T02:39:40;39.05;;;27.08;;
48703;SDS011;34502;51.296;16.918;2024-03-23T02:42:07;39.88;;;27.02;;
48703;SDS011;34502;51.296;16.918;2024-03-23T02:44:33;31.67;;;22.88;;
48703;SDS011;34502;51.296;16.918;2024-03-23T02:46:59;34.85;;;23.58;;
48703;SDS011;34502;51.296;16.918;2024-03-23T02:49:25;33.90;;;22.83;;
48703;SDS011;34502;51.296;16.918;2024-03-23T02:51:51;36.50;;;23.70;;
48703;SDS011;34502;51.296;16.918;2024-03-23T02:54:17;32.80;;;22.77;;
48703;SDS011;34502;51.296;16.918;2024-03-23T02:56:43;37.65;;;24.85;;
48703;SDS011;34502;51.296;16.918;2024-03-23T02:59:10;39.22;;;25.83;;
48703;SDS011;34502;51.296;16.918;2024-03-23T03:01:36;35.78;;;25.55;;
48703;SDS011;34502;51.296;16.918;2024-03-23T03:04:02;37.05;;;24.77;;
48703;SDS011;34502;51.296;16.918;2024-03-23T03:06:31;34.20;;;24.25;;
48703;SDS011;34502;51.296;16.918;2024-03-23T03:08:57;33.25;;;23.80;;
48703;SDS011;34502;51.296;16.918;2024-03-23T03:11:23;31.85;;;22.67;;
48703;SDS011;34502;51.296;16.918;2024-03-23T03:13:49;36.25;;;24.70;;
48703;SDS011;34502;51.296;16.918;2024-03-23T03:16:15;35.17;;;23.45;;
48703;SDS011;34502;51.296;16.918;2024-03-23T03:18:41;35.75;;;22.85;;
48703;SDS011;34502;51.296;16.918;2024-03-23T03:21:08;34.38;;;23.05;;
48703;SDS011;34502;51.296;16.918;2024-03-23T03:23:38;35.35;;;23.25;;
48703;SDS011;34502;51.296;16.918;2024-03-23T03:26:05;41.85;;;26.48;;
48703;SDS011;34502;51.296;16.918;2024-03-23T03:28:31;37.78;;;24.33;;
48703;SDS011;34502;51.296;16.918;2024-03-23T03:30:58;38.40;;;24.23;;
48703;SDS011;34502;51.296;16.918;2024-03-23T03:33:25;30.48;;;22.08;;
48703;SDS011;34502;51.296;16.918;2024-03-23T03:35:55;36.72;;;25.33;;
48703;SDS011;34502;51.296;16.918;2024-03-23T03:38:21;33.53;;;23.98;;
48703;SDS011;34502;51.296;16.918;2024-03-23T03:40:47;34.05;;;24.38;;
48703;SDS011;34502;51.296;16.918;2024-03-23T03:43:13;38.97;;;25.05;;
48703;SDS011;34502;51.296;16.918;2024-03-23T03:45:39;35.58;;;24.08;;
48703;SDS011;34502;51.296;16.918;2024-03-23T03:48:06;36.95;;;23.45;;
48703;SDS011;34502;51.296;16.918;2024-03-23T03:50:32;33.88;;;20.45;;
48703;SDS011;34502;51.296;16.918;2024-03-23T03:52:58;30.45;;;20.83;;
48703;SDS011;34502;51.296;16.918;2024-03-23T03:55:24;30.80;;;21.17;;
48703;SDS011;34502;51.296;16.918;2024-03-23T03:57:50;33.08;;;21.85;;
48703;SDS011;34502;51.296;16.918;2024-03-23T04:00:16;30.45;;;21.67;;
48703;SDS011;34502;51.296;16.918;2024-03-23T04:02:42;35.53;;;22.92;;
48703;SDS011;34502;51.296;16.918;2024-03-23T04:05:08;29.92;;;19.52;;
48703;SDS011;34502;51.296;16.918;2024-03-23T04:07:34;31.45;;;20.67;;
48703;SDS011;34502;51.296;16.918;2024-03-23T04:10:01;35.25;;;22.10;;
48703;SDS011;34502;51.296;16.918;2024-03-23T04:12:30;33.55;;;23.65;;
48703;SDS011;34502;51.296;16.918;2024-03-23T04:14:56;36.40;;;24.23;;
48703;SDS011;34502;51.296;16.918;2024-03-23T04:17:22;32.80;;;23.77;;
48703;SDS011;34502;51.296;16.918;2024-03-23T04:19:50;37.08;;;24.60;;
48703;SDS011;34502;51.296;16.918;2024-03-23T04:22:17;35.08;;;23.65;;
48703;SDS011;34502;51.296;16.918;2024-03-23T04:24:43;34.22;;;24.17;;
48703;SDS011;34502;51.296;16.918;2024-03-23T04:27:09;33.38;;;22.63;;
48703;SDS011;34502;51.296;16.918;2024-03-23T04:29:35;30.65;;;22.30;;
48703;SDS011;34502;51.296;16.918;2024-03-23T04:32:01;33.33;;;24.60;;
48703;SDS011;34502;51.296;16.918;2024-03-23T04:34:27;31.15;;;22.35;;
48703;SDS011;34502;51.296;16.918;2024-03-23T04:36:54;31.58;;;22.75;;
48703;SDS011;34502;51.296;16.918;2024-03-23T04:39:20;37.13;;;22.95;;
48703;SDS011;34502;51.296;16.918;2024-03-23T04:41:46;36.50;;;24.67;;
48703;SDS011;34502;51.296;16.918;2024-03-23T04:44:12;33.55;;;23.42;;
48703;SDS011;34502;51.296;16.918;2024-03-23T04:46:38;29.90;;;23.20;;
48703;SDS011;34502;51.296;16.918;2024-03-23T04:49:05;38.50;;;23.48;;
48703;SDS011;34502;51.296;16.918;2024-03-23T04:51:35;32.53;;;22.98;;
48703;SDS011;34502;51.296;16.918;2024-03-23T04:54:04;33.15;;;22.40;;
48703;SDS011;34502;51.296;16.918;2024-03-23T04:56:30;37.38;;;25.10;;
48703;SDS011;34502;51.296;16.918;2024-03-23T04:58:57;39.55;;;26.85;;
48703;SDS011;34502;51.296;16.918;2024-03-23T05:01:26;35.38;;;25.77;;
48703;SDS011;34502;51.296;16.918;2024-03-23T05:03:52;39.95;;;27.70;;
48703;SDS011;34502;51.296;16.918;2024-03-23T05:06:18;35.75;;;25.30;;
48703;SDS011;34502;51.296;16.918;2024-03-23T05:08:45;39.67;;;28.25;;
48703;SDS011;34502;51.296;16.918;2024-03-23T05:11:11;37.30;;;26.77;;
48703;SDS011;34502;51.296;16.918;2024-03-23T05:13:37;36.08;;;25.73;;
48703;SDS011;34502;51.296;16.918;2024-03-23T05:16:03;34.08;;;25.17;;
48703;SDS011;34502;51.296;16.918;2024-03-23T05:18:29;33.33;;;25.58;;
48703;SDS011;34502;51.296;16.918;2024-03-23T05:20:56;33.78;;;24.38;;
48703;SDS011;34502;51.296;16.918;2024-03-23T05:23:23;35.45;;;23.98;;
48703;SDS011;34502;51.296;16.918;2024-03-23T05:25:50;37.95;;;25.65;;
48703;SDS011;34502;51.296;16.918;2024-03-23T05:28:17;32.72;;;24.48;;
48703;SDS011;34502;51.296;16.918;2024-03-23T05:30:43;32.58;;;24.45;;
48703;SDS011;34502;51.296;16.918;2024-03-23T05:33:14;34.80;;;25.07;;
48703;SDS011;34502;51.296;16.918;2024-03-23T05:35:41;37.78;;;26.42;;
48703;SDS011;34502;51.296;16.918;2024-03-23T05:38:07;32.20;;;23.58;;
48703;SDS011;34502;51.296;16.918;2024-03-23T05:40:33;32.28;;;23.15;;
48703;SDS011;34502;51.296;16.918;2024-03-23T05:43:02;33.38;;;22.38;;
48703;SDS011;34502;51.296;16.918;2024-03-23T05:45:28;33.08;;;22.45;;
48703;SDS011;34502;51.296;16.918;2024-03-23T05:47:54;33.70;;;22.55;;
48703;SDS011;34502;51.296;16.918;2024-03-23T05:50:22;36.45;;;26.17;;
48703;SDS011;34502;51.296;16.918;2024-03-23T05:52:48;35.88;;;23.55;;
48703;SDS011;34502;51.296;16.918;2024-03-23T05:55:15;39.08;;;25.42;;
48703;SDS011;34502;51.296;16.918;2024-03-23T05:57:41;40.53;;;27.17;;
48703;SDS011;34502;51.296;16.918;2024-03-23T06:00:07;43.53;;;31.90;;
48703;SDS011;34502;51.296;16.918;2024-03-23T06:02:51;40.78;;;28.95;;
48703;SDS011;34502;51.296;16.918;2024-03-23T06:05:17;40.20;;;31.60;;
48703;SDS011;34502;51.296;16.918;2024-03-23T06:07:44;40.38;;;31.27;;
48703;SDS011;34502;51.296;16.918;2024-03-23T06:10:10;43.63;;;31.83;;
48703;SDS011;34502;51.296;16.918;2024-03-23T06:12:36;39.40;;;31.73;;
48703;SDS011;34502;51.296;16.918;2024-03-23T06:15:02;39.83;;;27.88;;
48703;SDS011;34502;51.296;16.918;2024-03-23T06:17:28;31.83;;;24.90;;
48703;SDS011;34502;51.296;16.918;2024-03-23T06:19:54;30.27;;;22.50;;
48703;SDS011;34502;51.296;16.918;2024-03-23T06:22:20;31.10;;;21.38;;
48703;SDS011;34502;51.296;16.918;2024-03-23T06:24:46;29.13;;;21.10;;
48703;SDS011;34502;51.296;16.918;2024-03-23T06:27:12;31.05;;;21.73;;
48703;SDS011;34502;51.296;16.918;2024-03-23T06:29:39;32.40;;;22.08;;
48703;SDS011;34502;51.296;16.918;2024-03-23T06:32:05;35.67;;;22.90;;
48703;SDS011;34502;51.296;16.918;2024-03-23T06:34:31;32.53;;;22.48;;
48703;SDS011;34502;51.296;16.918;2024-03-23T06:36:57;33.40;;;22.20;;
48703;SDS011;34502;51.296;16.918;2024-03-23T06:39:23;32.75;;;22.35;;
48703;SDS011;34502;51.296;16.918;2024-03-23T06:41:52;31.60;;;22.48;;
48703;SDS011;34502;51.296;16.918;2024-03-23T06:44:19;34.08;;;22.52;;
48703;SDS011;34502;51.296;16.918;2024-03-23T06:46:45;32.90;;;21.35;;
48703;SDS011;34502;51.296;16.918;2024-03-23T06:49:13;29.42;;;21.00;;
48703;SDS011;34502;51.296;16.918;2024-03-23T06:51:40;29.02;;;21.13;;
48703;SDS011;34502;51.296;16.918;2024-03-23T06:54:06;31.25;;;21.52;;
48703;SDS011;34502;51.296;16.918;2024-03-23T06:56:32;29.60;;;20.63;;
48703;SDS011;34502;51.296;16.918;2024-03-23T06:58:59;28.92;;;20.55;;
48703;SDS011;34502;51.296;16.918;2024-03-23T07:01:25;32.75;;;21.85;;
48703;SDS011;34502;51.296;16.918;2024-03-23T07:03:51;28.67;;;20.95;;
48703;SDS011;34502;51.296;16.918;2024-03-23T07:06:17;31.80;;;20.38;;
48703;SDS011;34502;51.296;16.918;2024-03-23T07:08:43;29.02;;;21.15;;
48703;SDS011;34502;51.296;16.918;2024-03-23T07:11:09;31.40;;;20.83;;
48703;SDS011;34502;51.296;16.918;2024-03-23T07:13:35;30.13;;;21.30;;
48703;SDS011;34502;51.296;16.918;2024-03-23T07:16:01;28.05;;;21.13;;
48703;SDS011;34502;51.296;16.918;2024-03-23T07:18:27;29.73;;;21.67;;
48703;SDS011;34502;51.296;16.918;2024-03-23T07:20:54;30.08;;;21.77;;
48703;SDS011;34502;51.296;16.918;2024-03-23T07:23:26;27.60;;;21.35;;
48703;SDS011;34502;51.296;16.918;2024-03-23T07:25:59;26.92;;;20.13;;
48703;SDS011;34502;51.296;16.918;2024-03-23T07:28:26;31.50;;;21.15;;
48703;SDS011;34502;51.296;16.918;2024-03-23T07:31:06;27.80;;;19.05;;
48703;SDS011;34502;51.296;16.918;2024-03-23T07:33:34;25.33;;;18.50;;
48703;SDS011;34502;51.296;16.918;2024-03-23T07:36:01;30.70;;;21.02;;
48703;SDS011;34502;51.296;16.918;2024-03-23T07:38:28;29.20;;;21.17;;
48703;SDS011;34502;51.296;16.918;2024-03-23T07:43:30;32.78;;;22.90;;
48703;SDS011;34502;51.296;16.918;2024-03-23T07:45:56;32.17;;;23.17;;
48703;SDS011;34502;51.296;16.918;2024-03-23T07:48:22;29.58;;;22.60;;
48703;SDS011;34502;51.296;16.918;2024-03-23T07:53:33;26.10;;;18.80;;
48703;SDS011;34502;51.296;16.918;2024-03-23T07:56:01;24.45;;;19.40;;
48703;SDS011;34502;51.296;16.918;2024-03-23T07:58:30;26.13;;;18.42;;
48703;SDS011;34502;51.296;16.918;2024-03-23T08:00:56;23.48;;;17.88;;
48703;SDS011;34502;51.296;16.918;2024-03-23T08:03:29;27.98;;;18.15;;
48703;SDS011;34502;51.296;16.918;2024-03-23T08:05:55;23.63;;;18.30;;
48703;SDS011;34502;51.296;16.918;2024-03-23T08:08:21;25.58;;;19.27;;
48703;SDS011;34502;51.296;16.918;2024-03-23T08:10:50;28.33;;;21.42;;
48703;SDS011;34502;51.296;16.918;2024-03-23T08:13:17;26.80;;;20.45;;
48703;SDS011;34502;51.296;16.918;2024-03-23T08:15:43;27.42;;;21.75;;
48703;SDS011;34502;51.296;16.918;2024-03-23T08:18:12;29.52;;;21.08;;
48703;SDS011;34502;51.296;16.918;2024-03-23T08:20:40;24.40;;;19.45;;
48703;SDS011;34502;51.296;16.918;2024-03-23T08:23:06;25.23;;;19.85;;
48703;SDS011;34502;51.296;16.918;2024-03-23T08:25:33;21.05;;;17.33;;
48703;SDS011;34502;51.296;16.918;2024-03-23T08:28:00;23.42;;;17.75;;
48703;SDS011;34502;51.296;16.918;2024-03-23T08:30:26;21.60;;;16.98;;
48703;SDS011;34502;51.296;16.918;2024-03-23T08:32:52;26.92;;;17.60;;
48703;SDS011;34502;51.296;16.918;2024-03-23T08:35:18;21.23;;;17.10;;
48703;SDS011;34502;51.296;16.918;2024-03-23T08:37:45;19.83;;;15.90;;
48703;SDS011;34502;51.296;16.918;2024-03-23T08:40:11;23.27;;;16.33;;
48703;SDS011;34502;51.296;16.918;2024-03-23T08:42:37;22.20;;;16.83;;
48703;SDS011;34502;51.296;16.918;2024-03-23T08:45:04;25.05;;;16.27;;
48703;SDS011;34502;51.296;16.918;2024-03-23T08:47:33;18.60;;;14.77;;
48703;SDS011;34502;51.296;16.918;2024-03-23T08:50:00;20.80;;;14.13;;
48703;SDS011;34502;51.296;16.918;2024-03-23T08:52:26;19.50;;;14.85;;
48703;SDS011;34502;51.296;16.918;2024-03-23T08:54:54;19.65;;;15.75;;
48703;SDS011;34502;51.296;16.918;2024-03-23T08:57:21;16.40;;;13.68;;
48703;SDS011;34502;51.296;16.918;2024-03-23T08:59:48;20.02;;;14.90;;
48703;SDS011;34502;51.296;16.918;2024-03-23T09:02:14;17.55;;;14.88;;
48703;SDS011;34502;51.296;16.918;2024-03-23T09:04:40;17.17;;;14.05;;
48703;SDS011;34502;51.296;16.918;2024-03-23T09:07:06;17.90;;;14.52;;
48703;SDS011;34502;51.296;16.918;2024-03-23T09:09:33;17.58;;;13.35;;
48703;SDS011;34502;51.296;16.918;2024-03-23T09:11:59;18.80;;;13.32;;
48703;SDS011;34502;51.296;16.918;2024-03-23T09:14:25;19.17;;;13.93;;
48703;SDS011;34502;51.296;16.918;2024-03-23T09:16:51;15.73;;;13.27;;
48703;SDS011;34502;51.296;16.918;2024-03-23T09:19:17;17.98;;;13.52;;
48703;SDS011;34502;51.296;16.918;2024-03-23T09:21:43;17.10;;;12.82;;
48703;SDS011;34502;51.296;16.918;2024-03-23T09:24:10;21.63;;;13.77;;
48703;SDS011;34502;51.296;16.918;2024-03-23T09:26:36;16.95;;;13.23;;
48703;SDS011;34502;51.296;16.918;2024-03-23T09:29:02;19.67;;;14.10;;
48703;SDS011;34502;51.296;16.918;2024-03-23T09:31:28;16.75;;;12.93;;
48703;SDS011;34502;51.296;16.918;2024-03-23T09:33:56;16.35;;;13.45;;
48703;SDS011;34502;51.296;16.918;2024-03-23T09:36:23;16.55;;;13.32;;
48703;SDS011;34502;51.296;16.918;2024-03-23T09:38:49;18.25;;;13.27;;
48703;SDS011;34502;51.296;16.918;2024-03-23T09:41:15;16.27;;;12.57;;
48703;SDS011;34502;51.296;16.918;2024-03-23T09:43:41;15.75;;;12.52;;
48703;SDS011;34502;51.296;16.918;2024-03-23T09:46:07;20.38;;;13.75;;
48703;SDS011;34502;51.296;16.918;2024-03-23T09:48:33;21.90;;;14.35;;
48703;SDS011;34502;51.296;16.918;2024-03-23T09:50:59;16.85;;;12.43;;
48703;SDS011;34502;51.296;16.918;2024-03-23T09:53:26;17.10;;;11.80;;
48703;SDS011;34502;51.296;16.918;2024-03-23T09:55:52;17.92;;;11.93;;
48703;SDS011;34502;51.296;16.918;2024-03-23T09:58:18;16.15;;;12.10;;
48703;SDS011;34502;51.296;16.918;2024-03-23T10:00:44;17.33;;;12.50;;
48703;SDS011;34502;51.296;16.918;2024-03-23T10:03:11;15.27;;;12.82;;
48703;SDS011;34502;51.296;16.918;2024-03-23T10:05:37;22.17;;;13.02;;
48703;SDS011;34502;51.296;16.918;2024-03-23T10:10:39;15.43;;;12.20;;
48703;SDS011;34502;51.296;16.918;2024-03-23T10:13:05;16.98;;;12.60;;
48703;SDS011;34502;51.296;16.918;2024-03-23T10:15:33;17.40;;;12.55;;
48703;SDS011;34502;51.296;16.918;2024-03-23T10:18:21;20.55;;;14.32;;
48703;SDS011;34502;51.296;16.918;2024-03-23T10:23:33;16.13;;;13.30;;
48703;SDS011;34502;51.296;16.918;2024-03-23T10:28:51;17.10;;;12.68;;
48703;SDS011;34502;51.296;16.918;2024-03-23T10:31:17;15.32;;;13.05;;
48703;SDS011;34502;51.296;16.918;2024-03-23T10:33:47;17.42;;;13.00;;
48703;SDS011;34502;51.296;16.918;2024-03-23T10:36:13;15.05;;;12.48;;
48703;SDS011;34502;51.296;16.918;2024-03-23T10:38:43;16.92;;;12.40;;
48703;SDS011;34502;51.296;16.918;2024-03-23T10:41:10;16.40;;;12.27;;
48703;SDS011;34502;51.296;16.918;2024-03-23T10:43:37;16.30;;;11.68;;
48703;SDS011;34502;51.296;16.918;2024-03-23T10:46:04;16.50;;;11.07;;
48703;SDS011;34502;51.296;16.918;2024-03-23T10:48:31;15.32;;;10.73;;
48703;SDS011;34502;51.296;16.918;2024-03-23T10:50:57;13.25;;;9.77;;
48703;SDS011;34502;51.296;16.918;2024-03-23T10:53:25;14.43;;;10.48;;
48703;SDS011;34502;51.296;16.918;2024-03-23T10:55:52;13.05;;;10.40;;
48703;SDS011;34502;51.296;16.918;2024-03-23T10:58:24;15.15;;;10.68;;
48703;SDS011;34502;51.296;16.918;2024-03-23T11:00:56;19.98;;;12.90;;
48703;SDS011;34502;51.296;16.918;2024-03-23T11:03:33;14.35;;;10.73;;
48703;SDS011;34502;51.296;16.918;2024-03-23T11:06:03;16.92;;;11.18;;
48703;SDS011;34502;51.296;16.918;2024-03-23T11:08:34;16.73;;;11.02;;
48703;SDS011;34502;51.296;16.918;2024-03-23T11:16:14;16.95;;;11.13;;
48703;SDS011;34502;51.296;16.918;2024-03-23T11:18:41;12.30;;;10.30;;
48703;SDS011;34502;51.296;16.918;2024-03-23T11:21:08;12.00;;;10.70;;
48703;SDS011;34502;51.296;16.918;2024-03-23T11:23:35;10.98;;;9.75;;
48703;SDS011;34502;51.296;16.918;2024-03-23T11:26:02;14.00;;;10.70;;
48703;SDS011;34502;51.296;16.918;2024-03-23T11:28:31;17.83;;;11.05;;
48703;SDS011;34502;51.296;16.918;2024-03-23T11:30:57;15.88;;;11.25;;
48703;SDS011;34502;51.296;16.918;2024-03-23T11:33:23;13.85;;;10.88;;
48703;SDS011;34502;51.296;16.918;2024-03-23T11:35:50;15.70;;;10.23;;
48703;SDS011;34502;51.296;16.918;2024-03-23T11:38:17;14.60;;;10.45;;
48703;SDS011;34502;51.296;16.918;2024-03-23T11:40:50;15.63;;;10.77;;
48703;SDS011;34502;51.296;16.918;2024-03-23T11:43:17;13.48;;;10.02;;
48703;SDS011;34502;51.296;16.918;2024-03-23T11:48:18;14.23;;;10.60;;
48703;SDS011;34502;51.296;16.918;2024-03-23T11:50:49;13.93;;;10.20;;
48703;SDS011;34502;51.296;16.918;2024-03-23T11:55:43;12.60;;;10.15;;
48703;SDS011;34502;51.296;16.918;2024-03-23T11:58:11;13.70;;;10.25;;
48703;SDS011;34502;51.296;16.918;2024-03-23T12:00:37;31.10;;;19.60;;
48703;SDS011;34502;51.296;16.918;2024-03-23T12:03:03;22.58;;;12.88;;
48703;SDS011;34502;51.296;16.918;2024-03-23T12:05:30;16.02;;;11.10;;
48703;SDS011;34502;51.296;16.918;2024-03-23T12:11:08;14.02;;;10.85;;
48703;SDS011;34502;51.296;16.918;2024-03-23T12:13:36;16.80;;;11.60;;
48703;SDS011;34502;51.296;16.918;2024-03-23T12:16:13;22.98;;;18.20;;
48703;SDS011;34502;51.296;16.918;2024-03-23T12:18:39;15.48;;;12.55;;
48703;SDS011;34502;51.296;16.918;2024-03-23T12:21:06;11.85;;;10.23;;
48703;SDS011;34502;51.296;16.918;2024-03-23T12:23:33;14.98;;;8.38;;
48703;SDS011;34502;51.296;16.918;2024-03-23T12:26:00;12.75;;;9.25;;
48703;SDS011;34502;51.296;16.918;2024-03-23T12:28:26;8.20;;;7.03;;
48703;SDS011;34502;51.296;16.918;2024-03-23T12:30:52;10.57;;;8.30;;
48703;SDS011;34502;51.296;16.918;2024-03-23T12:33:19;12.63;;;8.07;;
48703;SDS011;34502;51.296;16.918;2024-03-23T12:35:46;11.77;;;7.20;;
48703;SDS011;34502;51.296;16.918;2024-03-23T12:38:12;10.45;;;6.80;;
48703;SDS011;34502;51.296;16.918;2024-03-23T12:40:38;16.13;;;11.35;;
48703;SDS011;34502;51.296;16.918;2024-03-23T12:43:05;18.25;;;11.57;;
48703;SDS011;34502;51.296;16.918;2024-03-23T12:45:32;20.08;;;13.23;;
48703;SDS011;34502;51.296;16.918;2024-03-23T12:47:58;18.92;;;13.63;;
48703;SDS011;34502;51.296;16.918;2024-03-23T12:50:24;17.05;;;13.18;;
48703;SDS011;34502;51.296;16.918;2024-03-23T12:52:50;20.17;;;13.63;;
48703;SDS011;34502;51.296;16.918;2024-03-23T12:55:16;13.77;;;8.80;;
48703;SDS011;34502;51.296;16.918;2024-03-23T12:57:43;16.30;;;12.07;;
48703;SDS011;34502;51.296;16.918;2024-03-23T13:00:09;14.18;;;10.13;;
48703;SDS011;34502;51.296;16.918;2024-03-23T13:02:36;8.23;;;6.78;;
48703;SDS011;34502;51.296;16.918;2024-03-23T13:05:03;7.45;;;5.13;;
48703;SDS011;34502;51.296;16.918;2024-03-23T13:07:30;6.65;;;5.47;;
48703;SDS011;34502;51.296;16.918;2024-03-23T13:09:56;9.77;;;6.53;;
48703;SDS011;34502;51.296;16.918;2024-03-23T13:12:23;7.72;;;6.10;;
48703;SDS011;34502;51.296;16.918;2024-03-23T13:14:49;8.65;;;6.85;;
48703;SDS011;34502;51.296;16.918;2024-03-23T13:17:15;8.90;;;6.32;;
48703;SDS011;34502;51.296;16.918;2024-03-23T13:19:41;10.52;;;7.65;;
48703;SDS011;34502;51.296;16.918;2024-03-23T13:22:07;8.52;;;6.90;;
48703;SDS011;34502;51.296;16.918;2024-03-23T13:24:36;6.70;;;5.85;;
48703;SDS011;34502;51.296;16.918;2024-03-23T13:27:03;8.15;;;6.47;;
48703;SDS011;34502;51.296;16.918;2024-03-23T13:29:32;8.45;;;5.72;;
48703;SDS011;34502;51.296;16.918;2024-03-23T13:31:59;7.40;;;5.65;;
48703;SDS011;34502;51.296;16.918;2024-03-23T13:34:25;11.07;;;5.60;;
48703;SDS011;34502;51.296;16.918;2024-03-23T13:36:52;8.70;;;4.95;;
48703;SDS011;34502;51.296;16.918;2024-03-23T13:39:19;9.95;;;5.60;;
48703;SDS011;34502;51.296;16.918;2024-03-23T13:41:45;7.13;;;4.25;;
48703;SDS011;34502;51.296;16.918;2024-03-23T13:44:12;5.90;;;4.20;;
48703;SDS011;34502;51.296;16.918;2024-03-23T13:46:39;5.35;;;4.00;;
48703;SDS011;34502;51.296;16.918;2024-03-23T13:49:14;5.18;;;3.58;;
48703;SDS011;34502;51.296;16.918;2024-03-23T13:51:53;9.45;;;4.22;;
48703;SDS011;34502;51.296;16.918;2024-03-23T13:54:20;6.28;;;4.22;;
48703;SDS011;34502;51.296;16.918;2024-03-23T13:56:50;13.32;;;6.90;;
48703;SDS011;34502;51.296;16.918;2024-03-23T13:59:16;5.35;;;2.63;;
48703;SDS011;34502;51.296;16.918;2024-03-23T14:01:46;4.13;;;3.60;;
48703;SDS011;34502;51.296;16.918;2024-03-23T14:04:12;8.50;;;4.68;;
48703;SDS011;34502;51.296;16.918;2024-03-23T14:06:38;5.93;;;4.32;;
48703;SDS011;34502;51.296;16.918;2024-03-23T14:09:05;11.98;;;5.47;;
48703;SDS011;34502;51.296;16.918;2024-03-23T14:11:34;9.88;;;6.78;;
48703;SDS011;34502;51.296;16.918;2024-03-23T14:14:02;2.67;;;2.20;;
48703;SDS011;34502;51.296;16.918;2024-03-23T14:16:28;6.88;;;4.53;;
48703;SDS011;34502;51.296;16.918;2024-03-23T14:18:55;9.60;;;4.93;;
48703;SDS011;34502;51.296;16.918;2024-03-23T14:21:21;11.18;;;6.20;;
48703;SDS011;34502;51.296;16.918;2024-03-23T14:23:47;5.95;;;3.80;;
48703;SDS011;34502;51.296;16.918;2024-03-23T14:26:13;7.38;;;5.82;;
48703;SDS011;34502;51.296;16.918;2024-03-23T14:28:39;20.13;;;12.55;;
48703;SDS011;34502;51.296;16.918;2024-03-23T14:31:06;33.38;;;19.73;;
48703;SDS011;34502;51.296;16.918;2024-03-23T14:33:38;49.45;;;26.73;;
48703;SDS011;34502;51.296;16.918;2024-03-23T14:36:12;90.35;;;46.33;;
48703;SDS011;34502;51.296;16.918;2024-03-23T14:38:38;23.60;;;15.02;;
48703;SDS011;34502;51.296;16.918;2024-03-23T14:41:05;12.98;;;8.55;;
48703;SDS011;34502;51.296;16.918;2024-03-23T14:43:31;7.63;;;4.93;;
48703;SDS011;34502;51.296;16.918;2024-03-23T14:46:13;19.70;;;11.32;;
48703;SDS011;34502;51.296;16.918;2024-03-23T14:48:40;11.18;;;6.10;;
48703;SDS011;34502;51.296;16.918;2024-03-23T14:51:07;10.98;;;5.68;;
48703;SDS011;34502;51.296;16.918;2024-03-23T14:53:34;18.98;;;12.05;;
48703;SDS011;34502;51.296;16.918;2024-03-23T14:56:03;7.55;;;3.03;;
48703;SDS011;34502;51.296;16.918;2024-03-23T14:58:29;6.07;;;3.08;;
48703;SDS011;34502;51.296;16.918;2024-03-23T15:01:02;4.55;;;2.97;;
48703;SDS011;34502;51.296;16.918;2024-03-23T15:03:29;7.97;;;4.07;;
48703;SDS011;34502;51.296;16.918;2024-03-23T15:05:58;11.48;;;6.38;;
48703;SDS011;34502;51.296;16.918;2024-03-23T15:08:25;4.75;;;2.25;;
48703;SDS011;34502;51.296;16.918;2024-03-23T15:10:53;7.07;;;4.55;;
48703;SDS011;34502;51.296;16.918;2024-03-23T15:13:19;7.68;;;4.43;;
48703;SDS011;34502;51.296;16.918;2024-03-23T15:15:47;6.93;;;3.97;;
48703;SDS011;34502;51.296;16.918;2024-03-23T15:18:14;9.10;;;4.15;;
48703;SDS011;34502;51.296;16.918;2024-03-23T15:20:53;11.75;;;5.38;;
48703;SDS011;34502;51.296;16.918;2024-03-23T15:23:32;10.98;;;5.75;;
48703;SDS011;34502;51.296;16.918;2024-03-23T15:25:59;9.23;;;4.82;;
48703;SDS011;34502;51.296;16.918;2024-03-23T15:28:26;14.10;;;7.57;;
48703;SDS011;34502;51.296;16.918;2024-03-23T15:31:12;5.97;;;3.95;;
48703;SDS011;34502;51.296;16.918;2024-03-23T15:33:38;8.80;;;5.47;;
48703;SDS011;34502;51.296;16.918;2024-03-23T15:36:05;16.05;;;8.43;;